Stations météo

Publicité
Uccle, Belgique (6447): Température de l'air & dewpoint: 04.04.2020 20:00:00 - 10.04.2020 20:00:00 (CEST)Uccle, Belgique (6447): Vitesse du vent & gusts: 04.04.2020 20:00:00 - 10.04.2020 20:00:00 (CEST)Uccle, Belgique (6447): Direction du vent: 04.04.2020 20:00:00 - 10.04.2020 20:00:00 (CEST)Uccle, Belgique (6447): reduced air pressure: 04.04.2020 20:00:00 - 10.04.2020 20:00:00 (CEST)Uccle, Belgique (6447): Ensoleillement: 04.04.2020 20:00:00 - 10.04.2020 20:00:00 (CEST)Uccle, Belgique (6447): Quantités de précipitations: 04.04.2020 20:00:00 - 10.04.2020 20:00:00 (CEST)
Date & Time tt [°C] td [°C] ff [km/h] ff [knt] fx [km/h] fx [knt] dd ppp [hPa] sd [min] rr [mm]
10.04.2020 20:00:00 - - - - - - - - - -
10.04.2020 19:00:00 20,3 4,8 16 9 31 17 NE 1022,6 60 0,0
10.04.2020 18:00:00 20,5 5,7 13 7 29 16 NNE 1022,8 60 0,0
10.04.2020 17:00:00 21,0 6,0 16 9 28 15 NE 1023,0 60 0,0
10.04.2020 16:00:00 20,9 6,1 16 8 27 14 NE 1023,4 60 0,0
10.04.2020 15:00:00 20,4 6,0 11 6 27 14 NE 1023,9 60 0,0
10.04.2020 14:00:00 19,8 6,4 11 6 26 14 NE 1024,6 60 0,0
10.04.2020 13:00:00 19,1 6,8 10 5 29 15 ENE 1025,0 60 0,0
10.04.2020 12:00:00 17,1 7,4 11 6 21 12 NE 1025,5 60 0,0
10.04.2020 11:00:00 15,5 7,3 12 6 21 12 ENE 1025,7 60 0,0
10.04.2020 10:00:00 13,5 6,9 9 5 22 12 E 1025,5 60 0,0
10.04.2020 09:00:00 10,8 6,7 8 4 21 12 E 1025,6 60 0,0
10.04.2020 08:00:00 9,3 6,1 7 4 18 10 NE 1025,4 28 0,0
10.04.2020 07:00:00 9,1 5,7 10 5 19 10 E 1025,0 0 0,0
10.04.2020 06:00:00 9,8 5,6 13 7 21 12 ENE 1025,1 0 0,0
10.04.2020 05:00:00 10,6 5,7 14 7 23 13 ENE 1025,0 0 0,0
10.04.2020 04:00:00 11,4 5,7 14 7 22 12 ENE 1025,1 0 0,0
10.04.2020 03:00:00 12,1 5,7 13 7 23 12 ENE 1025,2 0 0,0
10.04.2020 02:00:00 12,9 5,9 14 8 22 12 ENE 1025,4 0 0,0
10.04.2020 01:00:00 13,8 6,0 13 7 23 12 NE 1025,4 0 0,0
10.04.2020 00:00:00 14,8 6,1 13 7 27 15 NE 1025,3 0 0,0
09.04.2020 23:00:00 16,1 5,7 13 7 23 12 NE 1025,4 0 0,0
09.04.2020 22:00:00 17,2 5,2 10 5 22 12 NE 1025,0 0 0,0
09.04.2020 21:00:00 18,4 4,7 12 6 22 12 NE 1024,4 13 0,0
09.04.2020 20:00:00 19,7 5,0 14 8 29 16 NE 1023,8 60 0,0
09.04.2020 19:00:00 20,8 5,6 10 6 30 16 NE 1023,3 60 0,0
09.04.2020 18:00:00 21,5 5,9 13 7 30 16 NNE 1023,4 60 0,0
09.04.2020 17:00:00 21,7 5,9 13 7 25 14 NNE 1023,5 60 0,0
09.04.2020 16:00:00 21,8 6,4 14 8 26 14 N 1023,8 60 0,0
09.04.2020 15:00:00 21,9 7,7 9 5 22 12 NNE 1024,0 60 0,0
09.04.2020 14:00:00 20,8 7,8 11 6 22 12 NNE 1024,2 60 0,0
09.04.2020 13:00:00 19,9 8,4 10 6 21 11 ENE 1024,4 60 0,0
09.04.2020 12:00:00 19,0 8,4 12 7 23 12 NE 1024,6 60 0,0
09.04.2020 11:00:00 17,5 8,3 13 7 26 14 ENE 1024,6 60 0,0
09.04.2020 10:00:00 15,0 8,6 11 6 26 14 E 1024,4 60 0,0
09.04.2020 09:00:00 12,2 8,5 14 8 27 14 ENE 1024,0 60 0,0
09.04.2020 08:00:00 11,4 8,4 14 8 24 13 NE 1023,6 8 0,0
09.04.2020 07:00:00 10,9 8,3 5 3 16 8 NNE 1023,0 0 0,0
09.04.2020 06:00:00 10,3 7,2 6 4 14 7 NE 1022,7 0 0,0
09.04.2020 05:00:00 10,5 6,9 5 3 9 5 NNE 1022,3 0 0,0
09.04.2020 04:00:00 11,2 6,4 6 3 9 5 N 1022,4 0 0,0
09.04.2020 03:00:00 12,2 6,0 4 2 12 7 NE 1022,6 0 0,0
09.04.2020 02:00:00 13,0 5,4 7 4 12 6 NE 1022,9 0 0,0
09.04.2020 01:00:00 13,9 4,1 6 3 12 6 NNE 1022,7 0 0,0
09.04.2020 00:00:00 16,2 4,3 10 5 15 8 NNE 1022,5 0 0,0
08.04.2020 23:00:00 15,0 4,5 9 5 12 7 NNE 1022,5 0 0,0
08.04.2020 22:00:00 16,7 4,4 8 4 10 5 NNE 1022,3 0 0,0
08.04.2020 21:00:00 18,8 3,4 8 5 11 6 NE 1022,0 5 0,0
08.04.2020 20:00:00 22,2 2,8 7 4 16 9 NNE 1021,5 60 0,0
08.04.2020 19:00:00 23,4 3,3 8 5 23 12 NE 1021,4 60 0,0
08.04.2020 18:00:00 24,1 3,5 8 4 21 11 NNW 1021,4 60 0,0
08.04.2020 17:00:00 23,8 3,5 10 5 17 9 WNW 1021,8 27 0,0
08.04.2020 16:00:00 23,4 4,0 9 5 22 12 N 1022,3 43 0,0
08.04.2020 15:00:00 23,9 4,4 10 5 22 12 NNE 1022,6 56 0,0
08.04.2020 14:00:00 23,2 4,3 7 4 15 8 NNW 1023,0 38 0,0
08.04.2020 13:00:00 22,5 4,3 5 3 10 6 NW 1023,3 58 0,0
08.04.2020 12:00:00 21,3 7,1 4 2 15 8 SE 1024,0 60 0,0
08.04.2020 11:00:00 18,6 6,0 6 3 14 8 S 1024,3 53 0,0
08.04.2020 10:00:00 16,7 6,7 7 4 15 8 S 1024,4 32 0,0
08.04.2020 09:00:00 14,6 6,4 10 5 19 10 SE 1024,4 17 0,0
08.04.2020 08:00:00 13,1 6,3 11 6 21 11 SSE 1024,4 20 0,0
08.04.2020 07:00:00 13,7 6,2 15 8 24 13 SSE 1024,2 0 0,0
08.04.2020 06:00:00 13,7 6,5 16 8 23 12 SSE 1024,4 0 0,0
08.04.2020 05:00:00 11,2 6,9 14 8 19 10 SE 1024,9 0 0,0
08.04.2020 04:00:00 11,0 7,0 12 7 17 9 SE 1025,2 0 0,0
08.04.2020 03:00:00 11,9 7,1 10 6 18 10 ESE 1025,5 0 0,0
08.04.2020 02:00:00 13,3 7,3 11 6 23 12 E 1026,1 0 0,0
08.04.2020 01:00:00 14,2 7,5 13 7 24 13 E 1026,2 0 0,0
08.04.2020 00:00:00 15,2 7,9 14 8 22 12 E 1026,5 0 0,0
07.04.2020 23:00:00 15,2 8,0 12 6 21 11 E 1026,8 0 0,0
07.04.2020 22:00:00 15,5 7,7 10 6 17 9 E 1027,0 0 0,0
07.04.2020 21:00:00 16,5 7,4 9 5 17 9 E 1026,7 6 0,0
07.04.2020 20:00:00 18,8 7,4 11 6 19 11 ENE 1026,5 47 0,0
07.04.2020 19:00:00 20,0 7,5 10 5 23 12 ENE 1026,7 60 0,0
07.04.2020 18:00:00 20,6 7,4 9 5 21 12 E 1027,1 60 0,0
07.04.2020 17:00:00 20,7 7,7 13 7 26 14 ESE 1027,6 60 0,0
07.04.2020 16:00:00 20,0 7,4 13 7 26 14 NE 1027,9 60 0,0
07.04.2020 15:00:00 19,4 6,7 11 6 23 12 E 1028,7 60 0,0
07.04.2020 14:00:00 18,8 6,9 7 4 24 13 ENE 1029,3 60 0,0
07.04.2020 13:00:00 18,0 5,8 12 6 24 13 E 1030,1 60 0,0
07.04.2020 12:00:00 16,0 7,1 9 5 20 11 E 1030,6 60 0,0
07.04.2020 11:00:00 14,0 7,5 8 4 15 8 ENE 1030,6 59 0,0
07.04.2020 10:00:00 12,0 8,0 7 4 14 8 E 1030,6 50 0,0
07.04.2020 09:00:00 9,2 8,7 6 3 9 5 E 1030,3 54 0,0
07.04.2020 08:00:00 6,7 6,1 4 2 6 3 N 1030,0 15 0,0
07.04.2020 07:00:00 6,6 5,9 4 2 5 3 NW 1029,3 0 0,0
07.04.2020 06:00:00 7,4 6,6 4 2 8 4 WNW 1029,1 0 0,0
07.04.2020 05:00:00 7,9 7,0 8 4 10 5 SW 1028,4 0 0,0
07.04.2020 04:00:00 8,3 7,3 5 3 8 5 SSW 1028,1 0 0,0
07.04.2020 03:00:00 8,8 7,5 6 3 8 5 SW 1028,0 0 0,0
07.04.2020 02:00:00 9,3 7,5 4 2 8 4 SW 1027,5 0 0,0
07.04.2020 01:00:00 10,5 8,1 5 3 10 5 WSW 1026,9 0 0,0
07.04.2020 00:00:00 12,0 8,6 4 2 10 6 WSW 1026,3 0 0,0
06.04.2020 23:00:00 12,7 8,2 6 4 22 12 WSW 1025,8 0 0,0
06.04.2020 22:00:00 13,7 8,6 10 6 22 12 WSW 1025,1 0 0,0
06.04.2020 21:00:00 14,2 9,2 9 5 23 12 SW 1023,9 0 0,0
06.04.2020 20:00:00 14,4 9,2 7 4 28 15 SW 1023,1 0 0,0
06.04.2020 19:00:00 15,0 7,9 14 7 31 17 WSW 1022,3 0 0,0
06.04.2020 18:00:00 16,9 4,7 14 8 41 22 W 1021,3 16 0,0
06.04.2020 17:00:00 19,8 4,3 21 11 40 22 WSW 1020,3 59 0,0
06.04.2020 16:00:00 21,1 3,5 20 11 45 24 SW 1019,6 60 0,0
06.04.2020 15:00:00 20,9 3,1 19 11 43 23 S 1019,2 60 0,0
06.04.2020 14:00:00 20,2 2,4 18 10 36 19 S 1018,8 60 0,0
06.04.2020 13:00:00 19,8 2,3 14 8 29 15 SSW 1018,4 60 0,0
06.04.2020 12:00:00 18,2 1,3 17 9 35 19 S 1017,9 60 0,0
06.04.2020 11:00:00 16,7 1,5 18 10 31 17 S 1017,7 60 0,0
06.04.2020 10:00:00 14,7 2,1 18 10 31 17 S 1017,1 60 0,0
06.04.2020 09:00:00 12,6 1,5 18 10 31 17 S 1016,7 58 0,0
06.04.2020 08:00:00 11,5 0,8 18 10 32 18 SSE 1015,9 30 0,0
06.04.2020 07:00:00 11,7 0,7 20 11 33 18 SSE 1015,2 0 0,0
06.04.2020 06:00:00 12,3 0,7 21 12 34 19 SSE 1014,9 0 0,0
06.04.2020 05:00:00 12,8 0,6 23 12 35 19 SSE 1014,8 0 0,0
06.04.2020 04:00:00 13,2 0,4 23 12 35 19 SSE 1014,8 0 0,0
06.04.2020 03:00:00 13,7 0,0 23 12 35 19 SSE 1015,0 0 0,0
06.04.2020 02:00:00 14,5 0,1 22 12 37 20 SSE 1015,0 0 0,0
06.04.2020 01:00:00 14,9 0,3 22 12 32 17 SSE 1015,0 0 0,0
06.04.2020 00:00:00 15,2 0,7 20 11 29 16 SE 1015,0 0 0,0
05.04.2020 23:00:00 16,1 1,2 16 9 25 13 SE 1015,0 0 0,0
05.04.2020 22:00:00 17,4 1,5 19 10 27 14 SE 1015,2 0 0,0
05.04.2020 21:00:00 18,1 1,2 13 7 25 13 SE 1015,2 10 0,0
05.04.2020 20:00:00 20,1 0,3 14 8 30 16 S 1014,9 60 0,0
05.04.2020 19:00:00 21,6 0,0 14 8 35 19 S 1014,9 60 0,0
05.04.2020 18:00:00 22,1 -1,4 21 11 37 20 S 1015,1 60 0,0
05.04.2020 17:00:00 22,1 1,3 15 8 34 18 SE 1015,6 60 0,0
05.04.2020 16:00:00 21,3 0,6 18 10 37 20 SSE 1016,2 60 0,0
05.04.2020 15:00:00 21,0 0,8 17 9 36 19 SSE 1017,0 60 0,0
05.04.2020 14:00:00 19,9 1,2 18 10 35 19 SSE 1017,7 60 0,0
05.04.2020 13:00:00 18,7 1,1 22 12 41 22 SSE 1018,6 60 0,0
05.04.2020 12:00:00 17,5 0,8 21 12 37 20 SE 1019,3 60 0,0
05.04.2020 11:00:00 14,9 1,2 19 10 31 17 SE 1019,7 60 0,0
05.04.2020 10:00:00 11,9 0,7 20 11 32 17 SE 1020,0 60 0,0
05.04.2020 09:00:00 9,2 0,2 21 11 31 17 SE 1020,4 55 0,0
05.04.2020 08:00:00 7,2 -0,4 14 8 28 15 ESE 1020,3 28 0,0
05.04.2020 07:00:00 6,7 -0,9 15 8 24 13 ESE 1020,1 0 0,0
05.04.2020 06:00:00 7,5 -1,0 16 8 23 12 ESE 1020,3 0 0,0
05.04.2020 05:00:00 7,7 -1,0 16 8 23 13 ESE 1020,6 0 0,0
05.04.2020 04:00:00 8,0 -1,0 14 8 21 11 ESE 1020,9 0 0,0
05.04.2020 03:00:00 8,3 -0,9 14 7 22 12 ESE 1021,1 0 0,0
05.04.2020 02:00:00 7,1 -0,6 14 8 20 11 ESE 1021,8 0 0,0
05.04.2020 01:00:00 7,2 -1,1 9 5 20 11 E 1021,8 0 0,0
05.04.2020 00:00:00 8,1 -0,8 12 7 23 12 E 1021,9 0 0,0
04.04.2020 23:00:00 9,3 0,2 13 7 23 12 E 1021,7 0 0,0
04.04.2020 22:00:00 10,0 0,7 11 6 21 11 E 1022,0 0 0,0
04.04.2020 21:00:00 11,2 0,7 8 5 16 9 E 1021,7 7 0,0
04.04.2020 20:00:00 13,6 0,5 7 4 19 10 E 1021,2 60 0,0

tt = Température de l'air
td = dewpoint
ff = Vitesse du vent
fx = gusts
dd = Direction du vent
ppp = reduced air pressure
sd = Ensoleillement
rr = Quantités de précipitations

stations d'obs. à proximité